Time;durP1;ratioP1;P1;durP2;ratioP2;P2;SDS_P1;SDS_P2;PMS_P1;PMS_P2;Temp;Humidity;BMP_temperature;BMP_pressure;BME280_temperature;BME280_humidity;BME280_pressure;Samples;Min_cycle;Max_cycle;Signal;HPM_P1;HPM_P2
2023/08/31 00:01:03;;;;;;;3.33;1.63;;;;;;;;;;5014935;28;20077;-67
2023/08/31 00:03:31;;;;;;;2.88;1.52;;;;;;;;;;5021661;28;20068;-69
2023/08/31 00:05:57;;;;;;;5.80;1.52;;;;;;;;;;5016316;28;20046;-69
2023/08/31 00:08:24;;;;;;;3.53;1.52;;;;;;;;;;5019235;28;20045;-67
2023/08/31 00:10:57;;;;;;;5.15;1.70;;;;;;;;;;5019013;28;20049;-67
2023/08/31 00:13:24;;;;;;;7.90;1.70;;;;;;;;;;5019919;28;20087;-66
2023/08/31 00:15:49;;;;;;;4.97;2.05;;;;;;;;;;5020820;28;20045;-68
2023/08/31 00:18:16;;;;;;;5.15;1.70;;;;;;;;;;5022949;28;20095;-66
2023/08/31 00:20:42;;;;;;;2.55;1.30;;;;;;;;;;5019687;28;20060;-67
2023/08/31 00:23:10;;;;;;;4.18;1.95;;;;;;;;;;5020124;28;20046;-68
2023/08/31 00:25:39;;;;;;;6.75;2.10;;;;;;;;;;5018762;28;20131;-66
2023/08/31 00:28:09;;;;;;;6.38;2.03;;;;;;;;;;5025179;28;20155;-68
2023/08/31 00:30:35;;;;;;;4.75;1.90;;;;;;;;;;5017198;28;20053;-66
2023/08/31 00:33:01;;;;;;;6.30;1.63;;;;;;;;;;5025117;28;20705;-66
2023/08/31 00:35:27;;;;;;;4.80;1.70;;;;;;;;;;5023268;28;20053;-67
2023/08/31 00:37:58;;;;;;;6.45;2.00;;;;;;;;;;5020078;28;21091;-66
2023/08/31 00:40:28;;;;;;;10.25;2.25;;;;;;;;;;5029354;28;20057;-66
2023/08/31 00:42:54;;;;;;;8.48;2.40;;;;;;;;;;5008451;28;20061;-67
2023/08/31 00:45:22;;;;;;;9.35;2.60;;;;;;;;;;5023392;28;20051;-67
2023/08/31 00:47:49;;;;;;;6.60;2.45;;;;;;;;;;5031179;28;20050;-65
2023/08/31 00:50:16;;;;;;;7.15;3.10;;;;;;;;;;5024726;28;20049;-66
2023/08/31 00:52:47;;;;;;;6.70;3.22;;;;;;;;;;5018848;28;20061;-66
2023/08/31 00:55:13;;;;;;;9.20;3.00;;;;;;;;;;5023789;28;20544;-67
2023/08/31 00:57:40;;;;;;;8.40;3.17;;;;;;;;;;5026011;28;20060;-67
2023/08/31 01:00:09;;;;;;;5.80;2.67;;;;;;;;;;5022534;28;20144;-66
2023/08/31 01:03:02;;;;;;;6.30;2.47;;;;;;;;;;5022971;28;20053;-67
2023/08/31 01:05:47;;;;;;;5.85;2.35;;;;;;;;;;5026953;28;20046;-66
2023/08/31 01:08:43;;;;;;;6.20;2.25;;;;;;;;;;5008248;28;20057;-67
2023/08/31 01:11:46;;;;;;;8.23;2.60;;;;;;;;;;5020357;28;20057;-66
2023/08/31 01:14:18;;;;;;;5.60;2.83;;;;;;;;;;5026474;28;20049;-65
2023/08/31 01:16:49;;;;;;;10.77;3.53;;;;;;;;;;5020880;28;20052;-66
2023/08/31 01:19:54;;;;;;;9.85;4.03;;;;;;;;;;5024183;28;20612;-66
2023/08/31 01:22:47;;;;;;;15.75;5.78;;;;;;;;;;5012373;28;20042;-67
2023/08/31 01:25:14;;;;;;;12.82;4.90;;;;;;;;;;5026131;28;20195;-65
2023/08/31 01:27:40;;;;;;;10.32;3.95;;;;;;;;;;5023025;28;20161;-66
2023/08/31 01:30:08;;;;;;;10.15;4.03;;;;;;;;;;5000749;28;20053;-65
2023/08/31 01:32:34;;;;;;;10.85;3.88;;;;;;;;;;5021988;28;21028;-66
2023/08/31 01:35:03;;;;;;;8.40;4.00;;;;;;;;;;5018989;28;20049;-66
2023/08/31 01:37:33;;;;;;;10.80;4.03;;;;;;;;;;5020738;28;20405;-67
2023/08/31 01:40:06;;;;;;;7.00;3.17;;;;;;;;;;5020296;28;20049;-65
2023/08/31 01:42:33;;;;;;;5.78;3.00;;;;;;;;;;5024292;28;20057;-66
2023/08/31 01:45:00;;;;;;;5.97;2.95;;;;;;;;;;5018360;28;20067;-65
2023/08/31 01:47:27;;;;;;;7.28;3.38;;;;;;;;;;5028837;28;20060;-66
2023/08/31 01:49:54;;;;;;;7.25;2.45;;;;;;;;;;5025997;28;20076;-66
2023/08/31 01:52:20;;;;;;;6.18;2.92;;;;;;;;;;5025030;28;20505;-66
2023/08/31 01:54:46;;;;;;;8.18;3.10;;;;;;;;;;5023235;28;20057;-66
2023/08/31 01:57:13;;;;;;;4.75;2.80;;;;;;;;;;5024682;28;20749;-66
2023/08/31 01:59:39;;;;;;;7.40;3.05;;;;;;;;;;5024925;28;20057;-69
2023/08/31 02:02:05;;;;;;;6.22;2.42;;;;;;;;;;5019819;28;20486;-68
2023/08/31 02:04:32;;;;;;;8.02;2.38;;;;;;;;;;5020212;28;20050;-66
2023/08/31 02:06:58;;;;;;;5.43;2.30;;;;;;;;;;5020042;28;20049;-70
2023/08/31 02:09:24;;;;;;;4.35;1.90;;;;;;;;;;5028931;28;20113;-66
2023/08/31 02:11:50;;;;;;;7.57;2.08;;;;;;;;;;5025923;28;20049;-66
2023/08/31 02:14:16;;;;;;;4.28;1.80;;;;;;;;;;5023803;28;20961;-66
2023/08/31 02:16:43;;;;;;;3.83;2.00;;;;;;;;;;4999594;28;20049;-66
2023/08/31 02:19:11;;;;;;;2.95;1.70;;;;;;;;;;5022556;28;20061;-66
2023/08/31 02:21:38;;;;;;;3.38;1.50;;;;;;;;;;5018597;28;20053;-66
2023/08/31 02:24:05;;;;;;;3.03;1.70;;;;;;;;;;5023976;28;20473;-66
2023/08/31 02:26:31;;;;;;;4.78;1.80;;;;;;;;;;5022554;28;20049;-65
2023/08/31 02:28:57;;;;;;;6.30;2.03;;;;;;;;;;5025052;28;20053;-66
2023/08/31 02:31:24;;;;;;;5.70;2.78;;;;;;;;;;5023982;28;20045;-66
2023/08/31 02:33:50;;;;;;;6.70;2.55;;;;;;;;;;5020830;28;20037;-67
2023/08/31 02:36:16;;;;;;;9.35;3.30;;;;;;;;;;5017770;28;20489;-67
2023/08/31 02:38:42;;;;;;;6.85;3.25;;;;;;;;;;5019485;28;20053;-67
2023/08/31 02:41:08;;;;;;;9.80;4.15;;;;;;;;;;5021674;28;20104;-66
2023/08/31 02:43:34;;;;;;;10.02;3.55;;;;;;;;;;5018805;28;20115;-65
2023/08/31 02:46:02;;;;;;;8.52;3.15;;;;;;;;;;5020092;28;20123;-65
2023/08/31 02:48:29;;;;;;;8.13;3.58;;;;;;;;;;5022888;28;20123;-66
2023/08/31 02:51:00;;;;;;;13.77;4.00;;;;;;;;;;5027311;28;20053;-66
2023/08/31 02:53:28;;;;;;;14.10;4.85;;;;;;;;;;5021844;28;20553;-67
2023/08/31 02:55:53;;;;;;;10.52;4.90;;;;;;;;;;5019797;28;20049;-65
2023/08/31 02:58:19;;;;;;;11.73;4.38;;;;;;;;;;5010922;28;20485;-65
2023/08/31 03:00:48;;;;;;;8.93;4.43;;;;;;;;;;5010339;28;20100;-66
2023/08/31 03:03:15;;;;;;;8.98;3.65;;;;;;;;;;5024186;28;20562;-66
2023/08/31 03:05:41;;;;;;;8.80;3.92;;;;;;;;;;5020420;28;20472;-67
2023/08/31 03:08:08;;;;;;;6.43;3.33;;;;;;;;;;5021156;28;20339;-66
2023/08/31 03:10:35;;;;;;;6.20;2.97;;;;;;;;;;5018521;28;20405;-67
2023/08/31 03:13:01;;;;;;;5.60;2.80;;;;;;;;;;5026083;28;20420;-66
2023/08/31 03:15:27;;;;;;;8.65;3.15;;;;;;;;;;5023871;28;20052;-66
2023/08/31 03:17:54;;;;;;;6.18;2.85;;;;;;;;;;5020132;28;20049;-66
2023/08/31 03:20:21;;;;;;;5.95;2.50;;;;;;;;;;5020036;28;20477;-66
2023/08/31 03:22:47;;;;;;;6.45;2.22;;;;;;;;;;5009366;28;20053;-65
2023/08/31 03:25:13;;;;;;;5.47;2.35;;;;;;;;;;5017434;28;20041;-65
2023/08/31 03:27:41;;;;;;;4.38;2.30;;;;;;;;;;4997754;28;20068;-66
2023/08/31 03:30:07;;;;;;;4.35;2.03;;;;;;;;;;5022664;28;20461;-66
2023/08/31 03:32:33;;;;;;;3.65;1.90;;;;;;;;;;5020768;28;20125;-66
2023/08/31 03:35:02;;;;;;;7.22;2.35;;;;;;;;;;5020577;28;20276;-67
2023/08/31 03:37:29;;;;;;;4.35;2.10;;;;;;;;;;5020921;28;20405;-68
2023/08/31 03:39:56;;;;;;;4.72;2.17;;;;;;;;;;5020673;28;20468;-68
2023/08/31 03:42:22;;;;;;;5.53;2.95;;;;;;;;;;5019372;28;20607;-66
2023/08/31 03:44:48;;;;;;;8.10;2.50;;;;;;;;;;5019925;28;20084;-65
2023/08/31 03:47:14;;;;;;;5.88;2.90;;;;;;;;;;5020388;28;20050;-66
2023/08/31 03:49:41;;;;;;;7.95;3.08;;;;;;;;;;5005678;28;20052;-65
2023/08/31 03:52:09;;;;;;;5.78;3.00;;;;;;;;;;5020061;28;20456;-66
2023/08/31 03:54:35;;;;;;;9.15;2.88;;;;;;;;;;5024313;28;20049;-66
2023/08/31 03:57:01;;;;;;;6.18;2.70;;;;;;;;;;5014743;28;20524;-67
2023/08/31 03:59:26;;;;;;;4.28;2.20;;;;;;;;;;5025003;28;20057;-66
2023/08/31 04:01:53;;;;;;;6.25;2.45;;;;;;;;;;5021355;28;20083;-68
2023/08/31 04:04:18;;;;;;;6.70;2.90;;;;;;;;;;5024860;28;20053;-68
2023/08/31 04:06:45;;;;;;;8.57;3.08;;;;;;;;;;5023880;28;20472;-66
2023/08/31 04:09:12;;;;;;;6.93;3.00;;;;;;;;;;5009017;28;20045;-68
2023/08/31 04:11:38;;;;;;;8.27;3.05;;;;;;;;;;5018758;28;20489;-66
2023/08/31 04:14:04;;;;;;;8.15;3.80;;;;;;;;;;5023929;28;20077;-66
2023/08/31 04:16:32;;;;;;;8.02;3.40;;;;;;;;;;5017787;28;20050;-66
2023/08/31 04:18:57;;;;;;;8.75;3.35;;;;;;;;;;5020204;28;20053;-68
2023/08/31 04:21:24;;;;;;;6.35;3.03;;;;;;;;;;5018393;28;20579;-67
2023/08/31 04:23:49;;;;;;;5.95;2.60;;;;;;;;;;5024082;28;20060;-69
2023/08/31 04:26:17;;;;;;;8.07;2.67;;;;;;;;;;5024089;28;20037;-70
2023/08/31 04:28:43;;;;;;;6.30;2.90;;;;;;;;;;5026851;28;20060;-69
2023/08/31 04:31:11;;;;;;;6.03;2.80;;;;;;;;;;5022665;28;20053;-68
2023/08/31 04:33:38;;;;;;;6.57;2.22;;;;;;;;;;5026643;28;20062;-70
2023/08/31 04:36:06;;;;;;;5.35;2.40;;;;;;;;;;5007718;28;20056;-69
2023/08/31 04:38:32;;;;;;;5.70;2.50;;;;;;;;;;5023784;28;20049;-69
2023/08/31 04:41:00;;;;;;;7.05;2.42;;;;;;;;;;5021049;28;20053;-68
2023/08/31 04:43:27;;;;;;;9.40;2.85;;;;;;;;;;5028172;28;20123;-69
2023/08/31 04:45:55;;;;;;;14.05;2.80;;;;;;;;;;5024973;28;20050;-69
2023/08/31 04:48:21;;;;;;;8.43;2.65;;;;;;;;;;5024311;28;20038;-70
2023/08/31 04:50:47;;;;;;;9.55;3.05;;;;;;;;;;5021752;28;20049;-69
2023/08/31 04:53:13;;;;;;;10.70;3.15;;;;;;;;;;5021255;28;20416;-69
2023/08/31 04:55:39;;;;;;;7.38;2.75;;;;;;;;;;5019679;28;20107;-69
2023/08/31 04:58:06;;;;;;;7.03;3.10;;;;;;;;;;5026004;28;20072;-71
2023/08/31 05:00:33;;;;;;;9.55;3.50;;;;;;;;;;5025120;28;20496;-70
2023/08/31 05:03:00;;;;;;;6.70;2.70;;;;;;;;;;5015206;28;20389;-70
2023/08/31 05:05:26;;;;;;;6.13;3.10;;;;;;;;;;5022852;28;20417;-65
2023/08/31 05:07:52;;;;;;;8.30;3.22;;;;;;;;;;5011548;28;20224;-65
2023/08/31 05:10:18;;;;;;;7.68;2.83;;;;;;;;;;5026838;28;20050;-66
2023/08/31 05:12:44;;;;;;;6.50;2.72;;;;;;;;;;5026290;28;20049;-67
2023/08/31 05:15:10;;;;;;;5.97;2.40;;;;;;;;;;5005531;28;20072;-65
2023/08/31 05:17:36;;;;;;;7.40;2.42;;;;;;;;;;5022317;28;20045;-65
2023/08/31 05:20:04;;;;;;;6.63;1.98;;;;;;;;;;5026364;28;20560;-64
2023/08/31 05:22:31;;;;;;;4.95;1.90;;;;;;;;;;5031062;28;20049;-66
2023/08/31 05:24:58;;;;;;;5.32;2.20;;;;;;;;;;5030669;28;20053;-65
2023/08/31 05:27:23;;;;;;;11.45;2.70;;;;;;;;;;5006602;28;20045;-65
2023/08/31 05:30:33;;;;;;;6.95;2.38;;;;;;;;;;5021049;28;20048;-64
2023/08/31 05:34:12;;;;;;;7.63;2.33;;;;;;;;;;5017574;28;20056;-66
2023/08/31 05:37:52;;;;;;;5.30;2.40;;;;;;;;;;5019945;28;20045;-66
2023/08/31 05:41:33;;;;;;;4.60;2.00;;;;;;;;;;5027042;28;20124;-64
2023/08/31 05:45:13;;;;;;;6.00;1.98;;;;;;;;;;5020662;28;20056;-65
2023/08/31 05:48:54;;;;;;;12.27;2.22;;;;;;;;;;5027124;28;20056;-66
2023/08/31 05:52:37;;;;;;;5.10;1.80;;;;;;;;;;5028876;28;20548;-65
2023/08/31 05:56:16;;;;;;;5.55;1.70;;;;;;;;;;5025309;28;21463;-63
2023/08/31 05:59:56;;;;;;;6.72;1.95;;;;;;;;;;5024720;28;20090;-64
2023/08/31 06:03:37;;;;;;;6.97;2.08;;;;;;;;;;5029215;28;20119;-64
2023/08/31 06:07:17;;;;;;;10.00;2.60;;;;;;;;;;5026827;28;20120;-65
2023/08/31 06:10:58;;;;;;;8.75;2.00;;;;;;;;;;5017900;28;20054;-63
2023/08/31 06:14:38;;;;;;;9.43;1.80;;;;;;;;;;5026972;28;20048;-64
2023/08/31 06:18:18;;;;;;;6.60;2.33;;;;;;;;;;5023462;28;20057;-63
2023/08/31 06:22:00;;;;;;;5.30;2.63;;;;;;;;;;5018721;28;20109;-65
2023/08/31 06:25:40;;;;;;;5.88;2.00;;;;;;;;;;5028543;28;20048;-64
2023/08/31 06:29:20;;;;;;;7.82;1.90;;;;;;;;;;5023064;28;20375;-65
2023/08/31 06:33:03;;;;;;;5.20;1.83;;;;;;;;;;5019644;28;20073;-66
2023/08/31 06:36:44;;;;;;;6.18;2.45;;;;;;;;;;5021015;28;20448;-64
2023/08/31 06:40:26;;;;;;;6.53;2.70;;;;;;;;;;5021691;28;20067;-62
2023/08/31 06:44:08;;;;;;;11.20;2.35;;;;;;;;;;5021773;28;20056;-65
2023/08/31 06:47:48;;;;;;;7.80;2.58;;;;;;;;;;5017426;28;20076;-63
2023/08/31 06:51:29;;;;;;;9.02;2.25;;;;;;;;;;5020369;28;20041;-62
2023/08/31 06:55:10;;;;;;;5.40;2.10;;;;;;;;;;5012936;28;20504;-64
2023/08/31 06:58:49;;;;;;;10.40;2.10;;;;;;;;;;5020214;28;20127;-64
2023/08/31 07:02:29;;;;;;;5.63;1.95;;;;;;;;;;5026195;28;20063;-66
2023/08/31 07:06:10;;;;;;;7.93;2.08;;;;;;;;;;5025393;28;20125;-61
2023/08/31 07:09:51;;;;;;;4.30;1.60;;;;;;;;;;5013964;28;20043;-62
2023/08/31 07:13:30;;;;;;;9.40;2.10;;;;;;;;;;5017433;28;20041;-64
2023/08/31 07:17:12;;;;;;;7.70;1.85;;;;;;;;;;5022194;28;20429;-65
2023/08/31 07:20:52;;;;;;;7.03;1.95;;;;;;;;;;5025960;28;20458;-66
2023/08/31 07:24:37;;;;;;;3.88;1.60;;;;;;;;;;5020397;28;20485;-66
2023/08/31 07:28:17;;;;;;;7.65;1.95;;;;;;;;;;5020021;28;20045;-64
2023/08/31 07:31:57;;;;;;;3.35;1.50;;;;;;;;;;5021676;28;20053;-64
2023/08/31 07:35:38;;;;;;;6.38;1.80;;;;;;;;;;5016461;28;20045;-66
2023/08/31 07:39:19;;;;;;;8.20;2.10;;;;;;;;;;5018509;28;20382;-66
2023/08/31 07:43:00;;;;;;;4.72;1.67;;;;;;;;;;5010797;28;20128;-67
2023/08/31 07:46:40;;;;;;;13.18;1.95;;;;;;;;;;5024890;28;20057;-63
2023/08/31 07:50:20;;;;;;;6.47;1.77;;;;;;;;;;5018441;28;20057;-65
2023/08/31 07:53:39;;;;;;;6.05;1.95;;;;;;;;;;5013468;28;20520;-63
2023/08/31 07:56:45;;;;;;;5.97;1.60;;;;;;;;;;5014061;28;20519;-65
2023/08/31 08:00:09;;;;;;;7.80;1.60;;;;;;;;;;5019574;28;20044;-67
2023/08/31 08:03:49;;;;;;;7.75;1.75;;;;;;;;;;5024421;28;20045;-65
2023/08/31 08:07:29;;;;;;;13.35;2.10;;;;;;;;;;5022682;28;20056;-65
2023/08/31 08:11:12;;;;;;;13.95;2.22;;;;;;;;;;5026936;28;20602;-69
2023/08/31 08:14:52;;;;;;;5.88;2.20;;;;;;;;;;5022041;28;20072;-67
2023/08/31 08:18:33;;;;;;;3.78;1.52;;;;;;;;;;5019811;28;20051;-65
2023/08/31 08:22:13;;;;;;;7.57;1.40;;;;;;;;;;5024763;28;20057;-65
2023/08/31 08:25:55;;;;;;;3.58;1.30;;;;;;;;;;5023650;28;20049;-65
2023/08/31 08:29:36;;;;;;;2.78;1.40;;;;;;;;;;5023948;28;20493;-65
2023/08/31 08:33:17;;;;;;;4.45;1.58;;;;;;;;;;5019720;28;20052;-66
2023/08/31 08:36:58;;;;;;;5.20;1.65;;;;;;;;;;5023036;28;20046;-70
2023/08/31 08:40:38;;;;;;;6.60;1.73;;;;;;;;;;5025877;28;20195;-69
2023/08/31 08:44:23;;;;;;;8.43;2.17;;;;;;;;;;5017869;28;20057;-69
2023/08/31 08:48:04;;;;;;;9.80;2.33;;;;;;;;;;5007679;28;20088;-69
2023/08/31 08:51:46;;;;;;;4.72;1.55;;;;;;;;;;4997378;28;20283;-66
2023/08/31 08:55:25;;;;;;;6.93;1.67;;;;;;;;;;5001818;28;20757;-68
2023/08/31 08:59:05;;;;;;;7.78;1.75;;;;;;;;;;5002592;28;20132;-70
2023/08/31 09:02:48;;;;;;;6.05;1.60;;;;;;;;;;5005909;28;20049;-70
2023/08/31 09:05:50;;;;;;;5.20;1.80;;;;;;;;;;4997483;28;20088;-69
2023/08/31 09:08:26;;;;;;;4.55;1.90;;;;;;;;;;5004166;28;20060;-71
2023/08/31 09:10:52;;;;;;;9.32;2.00;;;;;;;;;;5012012;28;20386;-68
2023/08/31 09:13:18;;;;;;;5.47;1.70;;;;;;;;;;5019920;28;20054;-71
2023/08/31 09:15:47;;;;;;;6.53;1.73;;;;;;;;;;5020770;28;20512;-69
2023/08/31 09:18:35;;;;;;;7.88;1.98;;;;;;;;;;5018950;28;20400;-71
2023/08/31 09:21:01;;;;;;;3.40;1.65;;;;;;;;;;5023930;28;20420;-69
2023/08/31 09:23:30;;;;;;;7.32;1.95;;;;;;;;;;5019202;28;20133;-69
2023/08/31 09:25:56;;;;;;;6.72;2.08;;;;;;;;;;5009735;28;20132;-69
2023/08/31 09:28:29;;;;;;;4.30;1.80;;;;;;;;;;5021606;28;20037;-70
2023/08/31 09:31:08;;;;;;;5.60;2.15;;;;;;;;;;5017906;28;20042;-72
2023/08/31 09:33:37;;;;;;;6.68;1.42;;;;;;;;;;5026256;28;20635;-69
2023/08/31 09:36:06;;;;;;;4.70;1.77;;;;;;;;;;5021956;28;20104;-69
2023/08/31 09:38:43;;;;;;;4.85;1.45;;;;;;;;;;5024934;28;20086;-69
2023/08/31 09:41:09;;;;;;;5.28;1.60;;;;;;;;;;5016436;28;20141;-70
2023/08/31 09:43:36;;;;;;;2.88;1.40;;;;;;;;;;5020320;28;20491;-72
2023/08/31 09:46:04;;;;;;;4.40;1.40;;;;;;;;;;5011301;28;20183;-70
2023/08/31 09:48:30;;;;;;;6.88;1.70;;;;;;;;;;5028946;28;20054;-71
2023/08/31 09:50:58;;;;;;;3.03;1.50;;;;;;;;;;5028475;28;20076;-68
2023/08/31 09:53:29;;;;;;;2.20;1.58;;;;;;;;;;5027084;28;20092;-68
2023/08/31 09:55:56;;;;;;;3.78;1.52;;;;;;;;;;5030110;28;20057;-69
2023/08/31 09:58:27;;;;;;;3.08;1.58;;;;;;;;;;5021139;28;20103;-69
2023/08/31 10:00:55;;;;;;;4.70;1.20;;;;;;;;;;5022887;28;20045;-68
2023/08/31 10:03:25;;;;;;;2.72;1.40;;;;;;;;;;5019764;28;20073;-68
2023/08/31 10:05:52;;;;;;;2.20;1.10;;;;;;;;;;5029191;28;20049;-67
2023/08/31 10:08:19;;;;;;;2.75;1.25;;;;;;;;;;5023477;28;20107;-67
2023/08/31 10:11:25;;;;;;;3.22;1.58;;;;;;;;;;5025178;28;20111;-69
2023/08/31 10:15:06;;;;;;;5.95;1.63;;;;;;;;;;5024615;28;20091;-67
2023/08/31 10:18:47;;;;;;;5.13;1.42;;;;;;;;;;5023068;28;20511;-67
2023/08/31 10:22:30;;;;;;;5.07;1.25;;;;;;;;;;5021803;28;20076;-67
2023/08/31 10:26:19;;;;;;;3.65;1.40;;;;;;;;;;5017624;28;20053;-68
2023/08/31 10:30:07;;;;;;;5.63;1.70;;;;;;;;;;5027298;28;20052;-66
2023/08/31 10:33:10;;;;;;;3.28;1.50;;;;;;;;;;5026529;28;20069;-65
2023/08/31 10:36:33;;;;;;;2.22;1.17;;;;;;;;;;5025472;28;20118;-65
2023/08/31 10:40:25;;;;;;;8.63;1.60;;;;;;;;;;5014405;28;20049;-66
2023/08/31 10:44:05;;;;;;;5.20;1.50;;;;;;;;;;5023180;28;20061;-62
2023/08/31 10:47:46;;;;;;;5.60;1.50;;;;;;;;;;5022576;28;20058;-67
2023/08/31 10:51:26;;;;;;;4.68;1.35;;;;;;;;;;5023429;28;20110;-67
2023/08/31 10:55:06;;;;;;;4.82;1.90;;;;;;;;;;5024333;28;20160;-68
2023/08/31 10:58:53;;;;;;;3.97;1.63;;;;;;;;;;5019544;28;20052;-68
2023/08/31 11:02:19;;;;;;;;;;;;;;;;;;5019795;28;20059;-65
2023/08/31 11:05:59;;;;;;;2.80;1.30;;;;;;;;;;5018442;28;19929;-68
2023/08/31 11:09:40;;;;;;;13.98;2.50;;;;;;;;;;5018641;28;20061;-69
2023/08/31 11:13:20;;;;;;;8.68;2.13;;;;;;;;;;5019537;28;20123;-68
2023/08/31 11:17:01;;;;;;;5.68;1.77;;;;;;;;;;5019265;28;20049;-68
2023/08/31 11:20:41;;;;;;;3.25;1.30;;;;;;;;;;5019063;28;20052;-67
2023/08/31 11:24:21;;;;;;;6.15;2.10;;;;;;;;;;5020058;28;20052;-67
2023/08/31 11:28:04;;;;;;;4.18;2.00;;;;;;;;;;5019867;28;20120;-66
2023/08/31 11:31:45;;;;;;;3.03;1.45;;;;;;;;;;5021198;28;20588;-67
2023/08/31 11:35:11;;;;;;;7.90;2.10;;;;;;;;;;5022445;28;20071;-64
2023/08/31 11:37:42;;;;;;;5.20;1.50;;;;;;;;;;4980588;28;20459;-65
2023/08/31 11:40:14;;;;;;;7.65;2.00;;;;;;;;;;5017050;28;20465;-66
2023/08/31 11:42:44;;;;;;;2.63;1.90;;;;;;;;;;5016798;28;20619;-68
2023/08/31 11:45:13;;;;;;;5.47;1.83;;;;;;;;;;4997975;28;20050;-66
2023/08/31 11:47:42;;;;;;;7.32;1.80;;;;;;;;;;4989068;28;20109;-69
2023/08/31 11:50:11;;;;;;;5.55;1.70;;;;;;;;;;5002466;28;20049;-68
2023/08/31 11:52:41;;;;;;;4.75;1.65;;;;;;;;;;5019885;28;20057;-70
2023/08/31 11:55:12;;;;;;;2.65;1.50;;;;;;;;;;5019749;28;20057;-71
2023/08/31 11:57:39;;;;;;;4.13;1.77;;;;;;;;;;5018744;28;20495;-70
2023/08/31 12:00:06;;;;;;;3.00;1.33;;;;;;;;;;5020972;28;20049;-68
2023/08/31 12:02:39;;;;;;;4.22;1.80;;;;;;;;;;5020065;28;20859;-71
2023/08/31 12:05:07;;;;;;;4.30;1.70;;;;;;;;;;5001270;28;20183;-67
2023/08/31 12:07:40;;;;;;;4.43;1.40;;;;;;;;;;5017899;28;20073;-68
2023/08/31 12:10:09;;;;;;;4.18;1.58;;;;;;;;;;4997254;28;20053;-71
2023/08/31 12:12:45;;;;;;;2.63;1.33;;;;;;;;;;5008861;28;20049;-70
2023/08/31 12:15:11;;;;;;;2.00;1.23;;;;;;;;;;5018677;28;20045;-71
2023/08/31 12:17:50;;;;;;;2.72;1.45;;;;;;;;;;5018188;28;20057;-69
2023/08/31 12:20:16;;;;;;;2.17;1.27;;;;;;;;;;5018633;28;20053;-68
2023/08/31 12:22:42;;;;;;;8.77;1.80;;;;;;;;;;5019375;28;20470;-69
2023/08/31 12:25:08;;;;;;;5.20;1.80;;;;;;;;;;4999964;28;20069;-71
2023/08/31 12:27:34;;;;;;;8.40;2.00;;;;;;;;;;5019915;28;20048;-70
2023/08/31 12:30:01;;;;;;;2.00;1.40;;;;;;;;;;5019928;28;20146;-71
2023/08/31 12:32:27;;;;;;;3.72;1.88;;;;;;;;;;5020335;28;20139;-71
2023/08/31 12:34:52;;;;;;;2.85;1.40;;;;;;;;;;5021986;28;20524;-69
2023/08/31 12:37:21;;;;;;;2.60;1.35;;;;;;;;;;5020165;28;20050;-70
2023/08/31 12:39:47;;;;;;;4.82;1.60;;;;;;;;;;5020288;28;20095;-69
2023/08/31 12:42:13;;;;;;;4.80;1.50;;;;;;;;;;5021944;28;20154;-70
2023/08/31 12:44:39;;;;;;;4.07;1.60;;;;;;;;;;5020025;28;20073;-72
2023/08/31 12:47:05;;;;;;;5.13;1.60;;;;;;;;;;5018786;28;20175;-72
2023/08/31 12:49:33;;;;;;;2.42;1.30;;;;;;;;;;5023111;28;20485;-70
2023/08/31 12:52:01;;;;;;;4.43;1.40;;;;;;;;;;5023527;28;20057;-68
2023/08/31 12:54:27;;;;;;;4.43;1.70;;;;;;;;;;5024218;28;20282;-69
2023/08/31 12:56:53;;;;;;;5.40;1.92;;;;;;;;;;5021841;28;20459;-68
2023/08/31 12:59:19;;;;;;;4.65;1.60;;;;;;;;;;5005705;28;20045;-68
2023/08/31 13:01:46;;;;;;;2.88;1.73;;;;;;;;;;5020912;28;20064;-67
2023/08/31 13:04:12;;;;;;;4.82;1.70;;;;;;;;;;5022414;28;20046;-68
2023/08/31 13:06:38;;;;;;;2.08;1.30;;;;;;;;;;5021629;28;20380;-66
2023/08/31 13:09:06;;;;;;;3.70;1.60;;;;;;;;;;5023038;28;20057;-65
2023/08/31 13:11:33;;;;;;;4.28;1.60;;;;;;;;;;5020323;28;20061;-68
2023/08/31 13:13:59;;;;;;;3.65;1.35;;;;;;;;;;5020362;28;20053;-69
2023/08/31 13:16:25;;;;;;;5.65;1.60;;;;;;;;;;5022902;28;20080;-69
2023/08/31 13:18:51;;;;;;;4.72;1.40;;;;;;;;;;5022420;28;20501;-71
2023/08/31 13:21:18;;;;;;;2.92;1.40;;;;;;;;;;5022696;28;20084;-70
2023/08/31 13:23:46;;;;;;;7.68;1.55;;;;;;;;;;5003335;28;20045;-69
2023/08/31 13:26:12;;;;;;;4.25;1.58;;;;;;;;;;5023412;28;20092;-72
2023/08/31 13:28:38;;;;;;;4.57;1.70;;;;;;;;;;5021502;28;20050;-70
2023/08/31 13:31:04;;;;;;;4.03;1.55;;;;;;;;;;5021217;28;20064;-70
2023/08/31 13:33:31;;;;;;;2.13;1.58;;;;;;;;;;5003740;28;21080;-69
2023/08/31 13:36:01;;;;;;;6.78;1.73;;;;;;;;;;5020949;28;20083;-72
2023/08/31 13:38:27;;;;;;;5.53;1.48;;;;;;;;;;5021925;28;20102;-69
2023/08/31 13:40:56;;;;;;;7.32;1.60;;;;;;;;;;5022300;28;20318;-69
2023/08/31 13:43:23;;;;;;;3.55;1.70;;;;;;;;;;5022287;28;20053;-69
2023/08/31 13:45:53;;;;;;;3.95;1.25;;;;;;;;;;5020727;28;20057;-71
2023/08/31 13:48:22;;;;;;;4.53;1.30;;;;;;;;;;5020952;28;20054;-68
2023/08/31 13:50:49;;;;;;;4.88;1.50;;;;;;;;;;5014522;28;20102;-70
2023/08/31 13:53:15;;;;;;;7.78;1.30;;;;;;;;;;5018622;28;20428;-69
2023/08/31 13:55:41;;;;;;;6.65;1.23;;;;;;;;;;5017503;28;20041;-69
2023/08/31 13:58:08;;;;;;;6.20;1.50;;;;;;;;;;5017834;28;20057;-66
2023/08/31 14:00:35;;;;;;;2.75;1.40;;;;;;;;;;4998718;28;20413;-71
2023/08/31 14:03:04;;;;;;;7.05;1.40;;;;;;;;;;5016768;28;20046;-70
2023/08/31 14:06:10;;;;;;;5.22;1.50;;;;;;;;;;5015905;28;20046;-67
2023/08/31 14:09:11;;;;;;;5.70;1.40;;;;;;;;;;5016270;28;20049;-66
2023/08/31 14:11:39;;;;;;;6.53;1.30;;;;;;;;;;5015992;28;20047;-71
2023/08/31 14:14:09;;;;;;;3.97;1.58;;;;;;;;;;5004148;28;20162;-69
2023/08/31 14:16:36;;;;;;;5.72;1.50;;;;;;;;;;5022378;28;20420;-73
2023/08/31 14:19:04;;;;;;;3.00;1.50;;;;;;;;;;5005812;28;20452;-68
2023/08/31 14:21:30;;;;;;;5.70;1.50;;;;;;;;;;5021277;28;20402;-68
2023/08/31 14:23:56;;;;;;;2.40;1.30;;;;;;;;;;5019479;28;20100;-68
2023/08/31 14:26:23;;;;;;;3.65;1.23;;;;;;;;;;5020591;28;20053;-69
2023/08/31 14:28:51;;;;;;;5.22;1.73;;;;;;;;;;5019536;28;20057;-67
2023/08/31 14:31:18;;;;;;;4.97;1.20;;;;;;;;;;5004935;28;20042;-69
2023/08/31 14:33:45;;;;;;;3.88;1.20;;;;;;;;;;5007291;28;20045;-67
2023/08/31 14:36:15;;;;;;;6.18;2.00;;;;;;;;;;5007482;28;20084;-66
2023/08/31 14:38:41;;;;;;;5.80;1.52;;;;;;;;;;5020332;28;20141;-67
2023/08/31 14:41:08;;;;;;;4.47;1.50;;;;;;;;;;5023357;28;20057;-69
2023/08/31 14:43:35;;;;;;;5.88;1.70;;;;;;;;;;5000435;28;20065;-67
2023/08/31 14:46:01;;;;;;;3.78;1.33;;;;;;;;;;5008416;28;20528;-69
2023/08/31 14:48:28;;;;;;;6.18;1.30;;;;;;;;;;5004370;28;20164;-69
2023/08/31 14:50:54;;;;;;;5.20;1.50;;;;;;;;;;5005619;28;20203;-69
2023/08/31 14:53:23;;;;;;;6.80;1.30;;;;;;;;;;5001209;28;20061;-68
2023/08/31 14:55:50;;;;;;;3.47;1.40;;;;;;;;;;5000175;28;20075;-71
2023/08/31 14:58:17;;;;;;;4.60;1.20;;;;;;;;;;5002452;28;20072;-68
2023/08/31 15:00:43;;;;;;;14.35;2.10;;;;;;;;;;5002636;28;20069;-69
2023/08/31 15:03:11;;;;;;;4.70;1.65;;;;;;;;;;5003366;28;20414;-68
2023/08/31 15:05:40;;;;;;;4.82;1.40;;;;;;;;;;5026178;28;20137;-69
2023/08/31 15:08:08;;;;;;;4.90;1.70;;;;;;;;;;5023924;28;20049;-69
2023/08/31 15:11:16;;;;;;;3.67;1.50;;;;;;;;;;5009340;28;20083;-68
2023/08/31 15:14:56;;;;;;;3.45;1.45;;;;;;;;;;5025243;28;20556;-69
2023/08/31 15:18:37;;;;;;;5.38;1.70;;;;;;;;;;5026210;28;20121;-67
2023/08/31 15:22:18;;;;;;;4.28;1.50;;;;;;;;;;5021601;28;20470;-67
2023/08/31 15:25:58;;;;;;;6.75;2.13;;;;;;;;;;5023109;28;20528;-67
2023/08/31 15:29:38;;;;;;;8.95;1.67;;;;;;;;;;5020245;28;20101;-68
2023/08/31 15:33:21;;;;;;;6.88;1.60;;;;;;;;;;5020047;28;20041;-67
2023/08/31 15:37:03;;;;;;;6.70;1.95;;;;;;;;;;5024257;28;20530;-68
2023/08/31 15:40:43;;;;;;;12.73;2.03;;;;;;;;;;5016809;28;20057;-67
2023/08/31 15:44:24;;;;;;;5.53;1.55;;;;;;;;;;5017181;28;20054;-68
2023/08/31 15:48:04;;;;;;;7.80;1.83;;;;;;;;;;5017584;28;20575;-69
2023/08/31 15:51:46;;;;;;;3.47;1.63;;;;;;;;;;5020913;28;20121;-68
2023/08/31 15:55:26;;;;;;;4.75;1.60;;;;;;;;;;5018730;28;20054;-69
2023/08/31 15:59:07;;;;;;;6.22;1.70;;;;;;;;;;5017462;28;20493;-69
2023/08/31 16:02:48;;;;;;;4.70;1.60;;;;;;;;;;5011691;28;20053;-67
2023/08/31 16:05:51;;;;;;;2.83;1.38;;;;;;;;;;5016390;28;20574;-69
2023/08/31 16:08:20;;;;;;;4.68;1.35;;;;;;;;;;5019789;28;20048;-69
2023/08/31 16:10:46;;;;;;;3.90;1.55;;;;;;;;;;5017508;28;20110;-70
2023/08/31 16:13:17;;;;;;;6.55;2.45;;;;;;;;;;5022478;28;20048;-68
2023/08/31 16:15:47;;;;;;;4.95;2.60;;;;;;;;;;5021031;28;20516;-70
2023/08/31 16:18:14;;;;;;;7.15;2.40;;;;;;;;;;5016860;28;20053;-67
2023/08/31 16:20:41;;;;;;;3.63;1.92;;;;;;;;;;4999586;28;20112;-68
2023/08/31 16:23:08;;;;;;;6.50;1.90;;;;;;;;;;5002051;28;20102;-72
2023/08/31 16:25:34;;;;;;;4.65;1.77;;;;;;;;;;5021935;28;20077;-72
2023/08/31 16:28:03;;;;;;;11.30;2.22;;;;;;;;;;5020927;28;20057;-68
2023/08/31 16:30:29;;;;;;;5.30;1.55;;;;;;;;;;5001867;28;20057;-68
2023/08/31 16:32:55;;;;;;;4.82;1.67;;;;;;;;;;5005564;28;20071;-70
2023/08/31 16:35:21;;;;;;;5.38;2.10;;;;;;;;;;4995908;28;20092;-69
2023/08/31 16:37:48;;;;;;;4.85;1.88;;;;;;;;;;4998141;28;20050;-68
2023/08/31 16:40:14;;;;;;;5.65;1.67;;;;;;;;;;5000845;28;20045;-67
2023/08/31 16:42:41;;;;;;;7.10;1.60;;;;;;;;;;4990536;28;20062;-67
2023/08/31 16:45:09;;;;;;;3.97;1.40;;;;;;;;;;4991281;28;20049;-69